createdAt,value
2017-10-29T10:19:35.339Z,58.3
2017-10-29T10:20:36.718Z,59.0
2017-10-29T10:21:38.135Z,58.8
2017-10-29T10:22:39.533Z,60.2
2017-10-29T10:23:41.341Z,59.8
2017-10-29T10:24:43.182Z,60.7
2017-10-29T10:25:44.982Z,60.4
2017-10-29T10:26:47.217Z,61.2
2017-10-29T10:27:48.806Z,62.8
2017-10-29T10:28:50.451Z,63.3
2017-10-29T10:29:52.546Z,62.9
2017-10-29T10:30:54.228Z,62.8
2017-10-29T10:31:56.634Z,62.7
2017-10-29T10:32:59.075Z,62.3
2017-10-29T10:34:01.102Z,61.3
2017-10-29T10:35:04.141Z,61.7
2017-10-29T10:36:05.804Z,60.4
2017-10-29T10:37:07.724Z,58.0
2017-10-29T10:38:09.856Z,56.2
2017-10-29T10:39:11.993Z,52.5
2017-10-29T10:40:13.683Z,53.8
2017-10-29T10:41:15.797Z,53.1
2017-10-29T10:42:17.512Z,52.1
2017-10-29T10:43:19.209Z,50.0
2017-10-29T10:44:22.165Z,51.1
2017-10-29T10:45:24.581Z,50.7
2017-10-29T10:46:26.726Z,50.1
2017-10-29T10:47:28.600Z,50.3
2017-10-29T10:48:30.964Z,48.8
2017-10-29T10:49:32.959Z,50.0
2017-10-29T10:50:34.639Z,50.6
2017-10-29T10:51:36.331Z,51.2
2017-10-29T10:52:38.066Z,51.6
2017-10-29T10:53:40.287Z,50.8
2017-10-29T10:54:42.298Z,51.0
2017-10-29T10:55:44.470Z,49.3
2017-10-29T10:56:46.759Z,50.1
2017-10-29T10:57:48.896Z,50.5
2017-10-29T10:58:51.857Z,51.2
2017-10-29T10:59:53.735Z,50.7
2017-10-29T11:00:55.565Z,51.0
2017-10-29T11:01:57.528Z,51.1
2017-10-29T11:02:59.334Z,49.2
2017-10-29T11:04:01.221Z,47.4
2017-10-29T11:05:03.307Z,47.8
2017-10-29T11:06:05.183Z,47.7
2017-10-29T11:07:06.873Z,48.7
2017-10-29T11:08:08.383Z,49.2
2017-10-29T11:09:09.976Z,48.6
2017-10-29T11:10:12.091Z,49.8
2017-10-29T11:11:14.164Z,51.4
2017-10-29T11:12:15.647Z,52.6
2017-10-29T11:13:17.384Z,53.0
2017-10-29T11:14:19.217Z,54.4
2017-10-29T11:15:21.878Z,54.2
2017-10-29T11:16:23.776Z,52.4
2017-10-29T11:17:25.268Z,52.7
2017-10-29T11:18:27.295Z,53.4
2017-10-29T11:19:28.847Z,52.9
2017-10-29T11:20:31.128Z,53.1
2017-10-29T11:21:33.019Z,53.5
2017-10-29T11:22:34.580Z,51.8
2017-10-29T11:23:36.388Z,51.4
2017-10-29T11:24:38.460Z,49.6
2017-10-29T11:25:40.006Z,50.7
2017-10-29T11:26:41.614Z,51.1
2017-10-29T11:27:43.436Z,50.1
2017-10-29T11:28:44.955Z,49.1
2017-10-29T11:29:46.501Z,50.1
2017-10-29T11:30:48.250Z,50.8
2017-10-29T11:31:49.706Z,52.1
2017-10-29T11:32:51.192Z,53.1
2017-10-29T11:33:53.070Z,53.4
2017-10-29T11:34:54.641Z,54.3
2017-10-29T11:35:56.360Z,56.1
2017-10-29T11:36:58.116Z,56.1
2017-10-29T11:37:59.616Z,57.2
2017-10-29T11:39:01.095Z,58.1
2017-10-29T11:40:02.900Z,58.5
2017-10-29T11:41:04.368Z,58.1
2017-10-29T11:42:06.237Z,58.0
2017-10-29T11:43:08.061Z,59.7
2017-10-29T11:44:09.525Z,61.8
2017-10-29T11:45:11.054Z,62.3
2017-10-29T11:46:12.515Z,63.4
2017-10-29T11:47:13.962Z,64.8
2017-10-29T11:48:15.435Z,65.2
2017-10-29T11:49:16.860Z,66.9
2017-10-29T11:50:18.528Z,67.5
2017-10-29T11:51:20.277Z,68.2
2017-10-29T11:52:21.980Z,69.0
2017-10-29T11:53:23.512Z,71.1
2017-10-29T11:54:25.234Z,71.3
2017-10-29T11:55:26.809Z,71.3
2017-10-29T11:56:28.572Z,70.8
2017-10-29T11:57:30.008Z,69.2
2017-10-29T11:58:31.909Z,68.4
2017-10-29T11:59:33.390Z,68.0
2017-10-29T12:00:34.923Z,67.9
2017-10-29T12:01:36.474Z,67.5
2017-10-29T12:02:38.006Z,66.6
2017-10-29T12:03:39.489Z,63.7
2017-10-29T12:04:41.005Z,61.2
2017-10-29T12:05:42.524Z,60.5
2017-10-29T12:06:44.368Z,59.4
2017-10-29T12:07:46.108Z,58.3
2017-10-29T12:08:47.563Z,57.1
2017-10-29T12:09:49.419Z,56.7
2017-10-29T12:10:51.202Z,56.0
2017-10-29T12:11:52.726Z,55.1
2017-10-29T12:12:54.441Z,54.1
2017-10-29T12:13:56.047Z,52.9
2017-10-29T12:14:58.062Z,52.4
2017-10-29T12:15:59.734Z,51.9
2017-10-29T12:17:01.792Z,52.3
2017-10-29T12:18:03.290Z,50.8
2017-10-29T12:19:05.147Z,49.8
2017-10-29T12:20:06.688Z,51.1
2017-10-29T12:21:08.205Z,51.9
2017-10-29T12:22:09.760Z,53.0
2017-10-29T12:23:11.541Z,52.1
2017-10-29T12:24:13.174Z,51.1
2017-10-29T12:25:14.692Z,51.1
2017-10-29T12:26:16.155Z,51.6
2017-10-29T12:27:17.943Z,50.0
2017-10-29T12:28:19.514Z,49.6
2017-10-29T12:29:21.301Z,48.9
2017-10-29T12:30:22.742Z,49.0
2017-10-29T12:31:24.547Z,49.1
2017-10-29T12:32:26.529Z,48.0
2017-10-29T12:33:28.475Z,48.2
2017-10-29T12:34:30.137Z,48.6
2017-10-29T12:35:31.759Z,46.9
2017-10-29T12:36:33.605Z,48.8
2017-10-29T12:37:35.864Z,48.8
2017-10-29T12:38:37.659Z,48.0
2017-10-29T12:39:39.608Z,48.4
2017-10-29T12:40:41.172Z,48.2
2017-10-29T12:41:42.686Z,47.4
2017-10-29T12:42:44.472Z,48.1
2017-10-29T12:43:46.250Z,47.2
2017-10-29T12:44:48.098Z,47.4
2017-10-29T12:45:49.576Z,46.9
2017-10-29T12:46:51.050Z,47.9
2017-10-29T12:47:53.013Z,47.5
2017-10-29T12:48:54.977Z,46.4
2017-10-29T12:49:56.752Z,46.6
2017-10-29T12:50:58.425Z,46.7
2017-10-29T12:52:00.267Z,46.8
2017-10-29T12:53:02.097Z,46.1
2017-10-29T12:54:03.942Z,46.0
2017-10-29T12:55:05.805Z,47.0
2017-10-29T12:56:07.622Z,46.7
2017-10-29T12:57:09.220Z,46.1
2017-10-29T12:58:11.262Z,45.6
2017-10-29T12:59:13.125Z,44.5
2017-10-29T13:00:14.672Z,44.9
2017-10-29T13:01:16.588Z,45.9
2017-10-29T13:02:18.395Z,46.5
2017-10-29T13:03:20.170Z,46.7
2017-10-29T13:04:22.051Z,47.4
2017-10-29T13:05:23.959Z,48.1
2017-10-29T13:06:25.569Z,47.8
2017-10-29T13:07:27.346Z,47.9
2017-10-29T13:08:28.963Z,48.2
2017-10-29T13:09:30.459Z,47.2
2017-10-29T13:10:31.942Z,46.5
2017-10-29T13:11:33.734Z,46.1
2017-10-29T13:12:35.400Z,45.2
2017-10-29T13:13:37.215Z,45.6
2017-10-29T13:14:38.947Z,45.6
2017-10-29T13:15:40.715Z,46.4
2017-10-29T13:16:42.450Z,47.8
2017-10-29T13:17:44.207Z,49.1
2017-10-29T13:18:45.920Z,49.8
2017-10-29T13:19:47.635Z,51.2
2017-10-29T13:20:49.183Z,52.3
2017-10-29T13:21:50.817Z,51.7
2017-10-29T13:22:52.564Z,50.7
2017-10-29T13:23:54.425Z,50.4
2017-10-29T13:24:56.256Z,49.2
2017-10-29T13:25:58.108Z,47.9
2017-10-29T13:26:59.835Z,47.8
2017-10-29T13:28:01.701Z,46.8
2017-10-29T13:29:03.279Z,47.1
2017-10-29T13:30:04.740Z,46.3
2017-10-29T13:31:06.541Z,46.0
2017-10-29T13:32:08.285Z,45.7
2017-10-29T13:33:09.818Z,45.8
2017-10-29T13:34:11.315Z,45.3
2017-10-29T13:35:12.981Z,45.1
2017-10-29T13:36:14.704Z,44.0
2017-10-29T13:37:16.383Z,44.2
2017-10-29T13:38:17.869Z,44.5
2017-10-29T13:39:19.648Z,44.6
2017-10-29T13:40:21.176Z,44.4
2017-10-29T13:41:22.889Z,45.8
2017-10-29T13:42:24.725Z,45.9
2017-10-29T13:43:26.501Z,46.6
2017-10-29T13:44:27.954Z,47.0
2017-10-29T13:45:29.499Z,46.8
2017-10-29T13:46:31.272Z,48.2
2017-10-29T13:47:32.777Z,49.2
2017-10-29T13:48:34.535Z,48.9
2017-10-29T13:49:36.210Z,49.7
2017-10-29T13:50:37.997Z,48.6
2017-10-29T13:51:39.748Z,48.8
2017-10-29T13:52:41.485Z,47.9
2017-10-29T13:53:43.314Z,48.1
2017-10-29T13:54:45.173Z,47.5
2017-10-29T13:55:46.695Z,46.5
2017-10-29T13:56:48.421Z,46.4
2017-10-29T13:57:50.163Z,46.0
2017-10-29T13:58:51.825Z,45.7
2017-10-29T13:59:53.590Z,46.6
2017-10-29T14:00:55.380Z,46.2
2017-10-29T14:01:57.141Z,45.6
2017-10-29T14:02:58.886Z,46.0
2017-10-29T14:04:00.630Z,45.8
2017-10-29T14:05:02.161Z,46.0
2017-10-29T14:06:03.663Z,45.4
2017-10-29T14:07:05.153Z,45.9
2017-10-29T14:08:07.007Z,45.7
2017-10-29T14:09:08.742Z,45.8
2017-10-29T14:10:10.564Z,46.6
2017-10-29T14:11:12.342Z,46.6
2017-10-29T14:12:14.147Z,46.6
2017-10-29T14:13:15.927Z,46.8
2017-10-29T14:14:17.729Z,46.5
2017-10-29T14:15:19.501Z,46.3
2017-10-29T14:16:21.234Z,47.0
2017-10-29T14:17:23.000Z,46.5
2017-10-29T14:18:24.764Z,46.6
2017-10-29T14:19:26.575Z,46.9
2017-10-29T14:20:28.152Z,47.3
2017-10-29T14:21:29.823Z,47.2
2017-10-29T14:22:31.389Z,46.8
2017-10-29T14:23:33.246Z,47.8
2017-10-29T14:24:34.724Z,48.9
2017-10-29T14:25:36.185Z,48.9
2017-10-29T14:26:37.704Z,50.3
2017-10-29T14:27:39.170Z,49.9
2017-10-29T14:28:40.644Z,50.0
2017-10-29T14:29:42.411Z,50.8
2017-10-29T14:30:44.202Z,50.8
2017-10-29T14:31:45.927Z,50.7
2017-10-29T14:32:47.737Z,50.1
2017-10-29T14:33:49.759Z,50.3
2017-10-29T14:34:51.488Z,50.8
2017-10-29T14:35:53.282Z,50.7
2017-10-29T14:36:55.015Z,52.2
2017-10-29T14:37:56.880Z,52.8
2017-10-29T14:38:58.767Z,53.1
2017-10-29T14:40:00.543Z,53.5
2017-10-29T14:41:02.528Z,54.1
2017-10-29T14:42:04.209Z,54.9
2017-10-29T14:43:05.755Z,54.8
2017-10-29T14:44:07.549Z,56.0
2017-10-29T14:45:09.347Z,56.8
2017-10-29T14:46:11.093Z,57.2
2017-10-29T14:47:12.930Z,58.4
2017-10-29T14:48:14.681Z,58.9
2017-10-29T14:49:16.530Z,59.1
2017-10-29T14:50:18.296Z,58.5
2017-10-29T14:51:20.025Z,59.2
2017-10-29T14:52:21.695Z,59.1
2017-10-29T14:53:23.418Z,59.9
2017-10-29T14:54:25.077Z,59.9
2017-10-29T14:55:26.573Z,60.4
2017-10-29T14:56:28.122Z,60.4
2017-10-29T14:57:29.808Z,60.6
2017-10-29T14:58:31.551Z,61.2
2017-10-29T14:59:33.283Z,61.9
2017-10-29T15:00:35.195Z,62.4
2017-10-29T15:01:36.993Z,62.8
2017-10-29T15:02:38.537Z,63.6
2017-10-29T15:03:40.324Z,65.2
2017-10-29T15:04:42.099Z,66.6
2017-10-29T15:05:43.832Z,68.3
2017-10-29T15:06:45.535Z,69.7
2017-10-29T15:07:47.337Z,71.1
2017-10-29T15:08:48.760Z,72.5
2017-10-29T15:09:50.273Z,73.1
2017-10-29T15:10:51.815Z,73.4
2017-10-29T15:11:53.487Z,74.1
2017-10-29T15:12:55.175Z,74.8
2017-10-29T15:13:56.940Z,75.8
2017-10-29T15:14:58.464Z,74.9
2017-10-29T15:15:59.910Z,75.1
2017-10-29T15:17:01.360Z,74.6
2017-10-29T15:18:02.784Z,74.2
2017-10-29T15:19:04.253Z,74.7
2017-10-29T15:20:05.715Z,74.3
2017-10-29T15:21:07.190Z,73.8
2017-10-29T15:22:08.730Z,72.9
2017-10-29T15:23:10.209Z,73.3
2017-10-29T15:24:11.703Z,74.0
2017-10-29T15:25:13.149Z,73.6
2017-10-29T15:26:14.624Z,73.3
2017-10-29T15:27:16.088Z,73.4
2017-10-29T15:28:17.553Z,73.2
2017-10-29T15:29:19.043Z,72.6
2017-10-29T15:30:20.487Z,72.2
2017-10-29T15:31:21.941Z,72.3
2017-10-29T15:32:23.367Z,72.7
2017-10-29T15:33:24.897Z,72.1
2017-10-29T15:34:26.340Z,71.2
2017-10-29T15:35:28.084Z,71.2
2017-10-29T15:36:29.550Z,70.4
2017-10-29T15:37:30.993Z,70.9
2017-10-29T15:38:32.519Z,71.1
2017-10-29T15:39:33.934Z,71.1
2017-10-29T15:40:35.391Z,72.1
2017-10-29T15:41:36.917Z,72.2
2017-10-29T15:42:38.374Z,72.2
2017-10-29T15:43:39.871Z,71.8
2017-10-29T15:44:41.289Z,72.1
2017-10-29T15:45:42.710Z,71.3
2017-10-29T15:46:44.154Z,70.9
2017-10-29T15:47:45.637Z,71.3
2017-10-29T15:48:47.128Z,72.3
2017-10-29T15:49:48.629Z,72.5
2017-10-29T15:50:50.100Z,72.6
2017-10-29T15:51:51.632Z,72.4
2017-10-29T15:52:53.302Z,73.1
2017-10-29T15:53:55.119Z,72.8
2017-10-29T15:54:56.777Z,72.7
2017-10-29T15:55:58.496Z,72.4
2017-10-29T15:57:00.212Z,72.6
2017-10-29T15:58:01.694Z,73.4
2017-10-29T15:59:03.186Z,73.4
2017-10-29T16:00:04.679Z,73.5
2017-10-29T16:01:06.135Z,73.7
2017-10-29T16:02:07.622Z,74.2
2017-10-29T16:03:09.107Z,74.1
2017-10-29T16:04:10.617Z,74.4
2017-10-29T16:05:12.097Z,73.8
2017-10-29T16:06:13.531Z,74.9
2017-10-29T16:07:15.179Z,74.2
2017-10-29T16:08:16.840Z,74.3
2017-10-29T16:09:18.557Z,75.4
2017-10-29T16:10:20.030Z,75.8
2017-10-29T16:11:21.513Z,76.3
2017-10-29T16:12:23.217Z,75.3
2017-10-29T16:13:24.961Z,75.1
2017-10-29T16:14:26.708Z,75.4
2017-10-29T16:15:28.233Z,75.9
2017-10-29T16:16:29.720Z,75.6
2017-10-29T16:17:31.319Z,76.2
2017-10-29T16:18:32.858Z,76.6
2017-10-29T16:19:34.474Z,76.5
2017-10-29T16:20:35.957Z,76.2
2017-10-29T16:21:37.641Z,75.8
2017-10-29T16:22:39.315Z,76.0
2017-10-29T16:23:42.201Z,76.5
2017-10-29T16:24:43.908Z,76.7
2017-10-29T16:25:45.661Z,76.9
2017-10-29T16:26:47.564Z,77.5
2017-10-29T16:27:49.333Z,77.8
2017-10-29T16:28:50.977Z,77.9
2017-10-29T16:29:52.829Z,77.9
2017-10-29T16:30:54.494Z,78.0
2017-10-29T16:31:55.955Z,78.1
2017-10-29T16:32:57.528Z,78.2
2017-10-29T16:33:59.315Z,78.3
2017-10-29T16:35:00.997Z,78.6
2017-10-29T16:36:02.775Z,78.6
2017-10-29T16:37:04.288Z,78.0
2017-10-29T16:38:06.073Z,77.8
2017-10-29T16:39:07.621Z,77.4
2017-10-29T16:40:09.308Z,78.0
2017-10-29T16:41:11.258Z,78.1
2017-10-29T16:42:12.946Z,78.4
2017-10-29T16:43:14.628Z,78.1
2017-10-29T16:44:16.367Z,77.9
2017-10-29T16:45:18.259Z,77.7
2017-10-29T16:46:20.149Z,77.8
2017-10-29T16:47:21.945Z,77.4
2017-10-29T16:48:23.503Z,77.5
2017-10-29T16:49:27.243Z,78.4
2017-10-29T16:50:29.020Z,78.1
2017-10-29T16:51:30.536Z,78.4
2017-10-29T16:52:32.324Z,79.0
2017-10-29T16:53:34.050Z,78.4
2017-10-29T16:54:35.737Z,78.4
2017-10-29T16:55:37.465Z,78.6
2017-10-29T16:56:38.988Z,78.4
2017-10-29T16:57:40.846Z,79.1
2017-10-29T16:58:42.425Z,79.3
2017-10-29T16:59:43.958Z,79.3
2017-10-29T17:00:45.703Z,79.3
2017-10-29T17:01:47.483Z,79.5
2017-10-29T17:02:49.151Z,79.5
2017-10-29T17:03:50.829Z,79.5
2017-10-29T17:04:52.657Z,80.4
2017-10-29T17:05:54.247Z,80.1
2017-10-29T17:06:55.733Z,80.0
2017-10-29T17:07:58.512Z,80.7
2017-10-29T17:09:00.253Z,80.8
2017-10-29T17:10:02.007Z,80.8
2017-10-29T17:11:03.768Z,81.0
2017-10-29T17:12:05.536Z,80.8
2017-10-29T17:13:07.333Z,80.7
2017-10-29T17:14:08.996Z,80.8
2017-10-29T17:15:10.483Z,80.7
2017-10-29T17:16:12.412Z,80.6
2017-10-29T17:17:14.249Z,81.0
2017-10-29T17:18:15.976Z,80.7
2017-10-29T17:19:17.759Z,81.4
2017-10-29T17:20:19.503Z,81.0
2017-10-29T17:21:21.227Z,80.8
2017-10-29T17:22:22.855Z,80.8
2017-10-29T17:23:24.699Z,80.5
2017-10-29T17:24:26.659Z,80.4
2017-10-29T17:25:28.424Z,80.0
2017-10-29T17:26:30.073Z,80.0
2017-10-29T17:27:32.000Z,80.0
2017-10-29T17:28:33.699Z,79.9
2017-10-29T17:29:35.373Z,80.1
2017-10-29T17:30:37.148Z,80.1
2017-10-29T17:31:38.619Z,80.4
2017-10-29T17:32:40.377Z,80.0
2017-10-29T17:33:41.971Z,80.2
2017-10-29T17:34:43.434Z,80.2
2017-10-29T17:35:44.925Z,79.9
2017-10-29T17:36:46.630Z,79.9
2017-10-29T17:37:48.340Z,80.4
2017-10-29T17:38:50.019Z,80.1
2017-10-29T17:39:51.772Z,80.0
2017-10-29T17:40:53.502Z,80.1
2017-10-29T17:41:54.963Z,81.2
2017-10-29T17:42:56.747Z,80.8
2017-10-29T17:43:58.430Z,80.6
2017-10-29T17:45:00.136Z,80.7
2017-10-29T17:46:01.839Z,80.8
2017-10-29T17:47:03.569Z,81.1
2017-10-29T17:48:05.314Z,81.0
2017-10-29T17:49:06.969Z,81.0
2017-10-29T17:50:08.723Z,81.0
2017-10-29T17:51:10.220Z,81.2
2017-10-29T17:52:11.978Z,81.1
2017-10-29T17:53:13.639Z,80.8
2017-10-29T17:54:15.383Z,81.5
2017-10-29T17:55:17.054Z,80.4
2017-10-29T17:56:18.716Z,81.0
2017-10-29T17:57:20.348Z,81.3
2017-10-29T17:58:22.023Z,80.7
2017-10-29T17:59:23.678Z,80.9
2017-10-29T18:00:25.377Z,80.8
2017-10-29T18:01:27.111Z,81.0
2017-10-29T18:02:28.868Z,81.1
2017-10-29T18:03:30.330Z,81.0
2017-10-29T18:04:31.963Z,81.0
2017-10-29T18:05:33.623Z,81.1
2017-10-29T18:06:35.082Z,81.0
2017-10-29T18:07:36.789Z,81.0
2017-10-29T18:08:38.291Z,80.9
2017-10-29T18:09:39.770Z,80.9
2017-10-29T18:10:41.233Z,80.8
2017-10-29T18:11:42.970Z,81.0
2017-10-29T18:12:44.664Z,81.2
2017-10-29T18:13:46.184Z,81.0
2017-10-29T18:14:47.942Z,81.3
2017-10-29T18:15:49.657Z,81.6
2017-10-29T18:16:51.125Z,80.7
2017-10-29T18:17:53.001Z,81.0
2017-10-29T18:18:54.709Z,80.8
2017-10-29T18:19:56.415Z,80.7
2017-10-29T18:20:58.095Z,80.8
2017-10-29T18:21:59.773Z,81.0
2017-10-29T18:23:01.262Z,81.1
2017-10-29T18:24:02.762Z,81.6
2017-10-29T18:25:04.516Z,81.4
2017-10-29T18:26:06.202Z,81.7
2017-10-29T18:27:07.982Z,81.6
2017-10-29T18:28:09.469Z,81.4
2017-10-29T18:29:11.182Z,81.3
2017-10-29T18:30:12.935Z,81.5
2017-10-29T18:31:14.608Z,81.4
2017-10-29T18:32:16.063Z,81.5
2017-10-29T18:33:17.900Z,81.4
2017-10-29T18:34:19.568Z,81.4
2017-10-29T18:35:21.202Z,82.0
2017-10-29T18:36:22.930Z,82.0
2017-10-29T18:37:24.635Z,82.0
2017-10-29T18:38:26.082Z,82.2
2017-10-29T18:39:27.783Z,82.0
2017-10-29T18:40:29.438Z,81.8
2017-10-29T18:41:30.989Z,81.9
2017-10-29T18:42:32.609Z,82.0
2017-10-29T18:43:34.251Z,82.3
2017-10-29T18:44:35.965Z,82.2
2017-10-29T18:45:37.649Z,81.9
2017-10-29T18:46:39.280Z,82.1
2017-10-29T18:47:41.008Z,81.5
2017-10-29T18:48:42.822Z,81.2
2017-10-29T18:49:44.460Z,81.4
2017-10-29T18:50:46.191Z,81.4
2017-10-29T18:51:47.909Z,81.7
2017-10-29T18:52:49.361Z,81.7
2017-10-29T18:53:51.058Z,81.1
2017-10-29T18:54:52.828Z,81.4
2017-10-29T18:55:54.271Z,81.5
2017-10-29T18:56:55.730Z,81.4
2017-10-29T18:57:57.305Z,81.8
2017-10-29T18:58:58.990Z,82.0
2017-10-29T19:00:00.712Z,82.3
2017-10-29T19:01:02.375Z,82.3
2017-10-29T19:02:04.025Z,82.5
2017-10-29T19:03:05.812Z,82.6
2017-10-29T19:04:07.585Z,83.1
2017-10-29T19:05:09.257Z,83.0
2017-10-29T19:06:10.792Z,83.2
2017-10-29T19:07:12.523Z,83.0
2017-10-29T19:08:14.087Z,83.0
2017-10-29T19:09:15.863Z,82.9
2017-10-29T19:10:17.517Z,83.1
2017-10-29T19:11:19.316Z,82.7
2017-10-29T19:12:21.020Z,83.4
2017-10-29T19:13:22.735Z,82.9
2017-10-29T19:14:24.173Z,82.8
2017-10-29T19:15:25.873Z,82.8
2017-10-29T19:16:27.530Z,83.1
2017-10-29T19:17:29.244Z,83.0
2017-10-29T19:18:30.917Z,83.1
2017-10-29T19:19:32.620Z,83.6
2017-10-29T19:20:34.307Z,83.2
2017-10-29T19:21:35.886Z,82.9
2017-10-29T19:22:37.325Z,83.1
2017-10-29T19:23:38.969Z,82.9
2017-10-29T19:24:40.556Z,83.3
2017-10-29T19:25:42.282Z,83.1
2017-10-29T19:26:43.941Z,83.4
2017-10-29T19:27:45.592Z,83.8
2017-10-29T19:28:47.154Z,83.7
2017-10-29T19:29:48.947Z,83.8
2017-10-29T19:30:50.544Z,83.7
2017-10-29T19:31:52.190Z,83.9
2017-10-29T19:32:53.927Z,83.8
2017-10-29T19:33:55.631Z,83.8
2017-10-29T19:34:57.086Z,83.7
2017-10-29T19:35:58.796Z,84.1
2017-10-29T19:37:00.507Z,83.8
2017-10-29T19:38:02.024Z,83.9
2017-10-29T19:39:03.651Z,83.8
2017-10-29T19:40:05.388Z,84.2
2017-10-29T19:41:07.111Z,84.4
2017-10-29T19:42:08.800Z,84.1
2017-10-29T19:43:10.234Z,84.2
2017-10-29T19:44:11.910Z,84.5
2017-10-29T19:45:13.639Z,84.1
2017-10-29T19:46:15.295Z,85.3
2017-10-29T19:47:16.994Z,84.9
2017-10-29T19:48:18.709Z,84.8
2017-10-29T19:49:20.352Z,84.6
2017-10-29T19:50:22.018Z,84.8
2017-10-29T19:51:23.793Z,85.1
2017-10-29T19:52:25.451Z,85.1
2017-10-29T19:53:26.983Z,84.8
2017-10-29T19:54:28.738Z,85.1
2017-10-29T19:55:30.529Z,85.5
2017-10-29T19:56:32.218Z,85.0
2017-10-29T19:57:33.905Z,85.5
2017-10-29T19:58:35.537Z,85.9
2017-10-29T19:59:37.152Z,85.9
2017-10-29T20:00:38.792Z,85.9
2017-10-29T20:01:40.297Z,86.0
2017-10-29T20:02:41.748Z,86.0
2017-10-29T20:03:43.197Z,85.7
2017-10-29T20:04:44.639Z,85.9
2017-10-29T20:05:46.203Z,86.0
2017-10-29T20:06:47.776Z,86.2
2017-10-29T20:07:49.256Z,86.3
2017-10-29T20:08:50.866Z,86.8
2017-10-29T20:09:52.307Z,86.0
2017-10-29T20:10:53.992Z,86.5
2017-10-29T20:11:55.729Z,86.5
2017-10-29T20:12:57.395Z,86.5
2017-10-29T20:13:59.086Z,87.0
2017-10-29T20:15:00.524Z,86.2
2017-10-29T20:16:02.218Z,86.7
2017-10-29T20:17:03.959Z,86.9
2017-10-29T20:18:05.689Z,86.8
2017-10-29T20:19:07.375Z,86.9
2017-10-29T20:20:09.093Z,87.0
2017-10-29T20:21:10.804Z,86.6
2017-10-29T20:22:12.281Z,87.4
2017-10-29T20:23:13.936Z,87.1
2017-10-29T20:24:15.520Z,87.4
2017-10-29T20:25:16.969Z,87.0
2017-10-29T20:26:18.434Z,87.3
2017-10-29T20:27:20.134Z,87.4
2017-10-29T20:28:21.798Z,87.8
2017-10-29T20:29:23.434Z,88.2
2017-10-29T20:30:25.129Z,87.9
2017-10-29T20:31:26.865Z,87.7
2017-10-29T20:32:29.068Z,87.6
2017-10-29T20:33:30.827Z,88.3
2017-10-29T20:34:32.405Z,88.3
2017-10-29T20:35:34.088Z,88.0
2017-10-29T20:36:35.830Z,88.5
2017-10-29T20:37:37.444Z,88.2
2017-10-29T20:38:39.226Z,88.3
2017-10-29T20:39:40.656Z,88.5
2017-10-29T20:40:42.395Z,88.4
2017-10-29T20:41:44.124Z,87.6
2017-10-29T20:42:45.787Z,87.7
2017-10-29T20:43:47.446Z,87.8
2017-10-29T20:44:48.918Z,87.9
2017-10-29T20:45:50.528Z,87.7
2017-10-29T20:46:52.068Z,87.9
2017-10-29T20:47:53.758Z,87.7
2017-10-29T20:48:55.390Z,87.5
2017-10-29T20:49:57.114Z,87.3
2017-10-29T20:50:58.900Z,87.5
2017-10-29T20:52:00.382Z,87.5
2017-10-29T20:53:01.835Z,87.5
2017-10-29T20:54:03.549Z,87.5
2017-10-29T20:55:05.126Z,87.5
2017-10-29T20:56:06.917Z,87.6
2017-10-29T20:57:08.618Z,87.6
2017-10-29T20:58:10.245Z,87.9
2017-10-29T20:59:11.918Z,88.1
2017-10-29T21:00:13.621Z,87.7
2017-10-29T21:01:15.353Z,87.8
2017-10-29T21:02:17.113Z,87.9
2017-10-29T21:03:18.813Z,87.8
2017-10-29T21:04:20.532Z,87.9
2017-10-29T21:05:22.039Z,87.5
2017-10-29T21:06:23.633Z,87.7
2017-10-29T21:07:25.285Z,87.6
2017-10-29T21:08:26.786Z,88.4
2017-10-29T21:09:28.566Z,88.4
2017-10-29T21:10:30.014Z,88.7
2017-10-29T21:11:31.794Z,88.4
2017-10-29T21:12:33.373Z,88.2
2017-10-29T21:13:35.050Z,88.5
2017-10-29T21:14:36.774Z,88.5
2017-10-29T21:15:38.451Z,88.1
2017-10-29T21:16:39.880Z,87.6
2017-10-29T21:17:41.378Z,87.9
2017-10-29T21:18:43.094Z,87.9
2017-10-29T21:19:44.657Z,87.6
2017-10-29T21:20:46.551Z,87.9
2017-10-29T21:21:48.047Z,88.2
2017-10-29T21:22:49.643Z,87.9
2017-10-29T21:23:51.365Z,88.1
2017-10-29T21:24:53.033Z,87.9
2017-10-29T21:25:54.726Z,88.0
2017-10-29T21:26:56.388Z,88.5
2017-10-29T21:27:58.010Z,88.6
2017-10-29T21:28:59.725Z,88.4
2017-10-29T21:30:01.359Z,88.6
2017-10-29T21:31:03.054Z,88.6
2017-10-29T21:32:04.760Z,88.0
2017-10-29T21:33:06.386Z,88.4
2017-10-29T21:34:07.829Z,88.2
2017-10-29T21:35:09.662Z,88.4
2017-10-29T21:36:11.420Z,88.3
2017-10-29T21:37:12.883Z,88.1
2017-10-29T21:38:14.593Z,88.7
2017-10-29T21:39:16.047Z,88.7
2017-10-29T21:40:17.844Z,88.1
2017-10-29T21:41:19.498Z,88.3
2017-10-29T21:42:21.142Z,88.3
2017-10-29T21:43:22.867Z,88.0
2017-10-29T21:44:24.787Z,88.0
2017-10-29T21:45:26.442Z,88.3
2017-10-29T21:46:28.356Z,88.6
2017-10-29T21:47:29.994Z,88.5
2017-10-29T21:48:31.945Z,88.0
2017-10-29T21:49:33.629Z,88.6
2017-10-29T21:50:35.319Z,88.2
2017-10-29T21:51:36.965Z,88.0
2017-10-29T21:52:38.676Z,88.3
2017-10-29T21:53:40.325Z,88.6
2017-10-29T21:54:42.012Z,88.9
2017-10-29T21:55:43.514Z,88.3
2017-10-29T21:56:45.305Z,88.2
2017-10-29T21:57:46.927Z,88.7
2017-10-29T21:58:48.477Z,88.6
2017-10-29T21:59:50.165Z,88.4
2017-10-29T22:00:51.930Z,88.6
2017-10-29T22:01:53.533Z,88.9
2017-10-29T22:02:55.078Z,88.4
2017-10-29T22:03:56.543Z,88.6
2017-10-29T22:04:58.083Z,89.1
2017-10-29T22:05:59.510Z,89.1
2017-10-29T22:07:01.176Z,89.1
2017-10-29T22:08:02.925Z,89.5
2017-10-29T22:09:04.559Z,89.0
2017-10-29T22:10:06.089Z,89.3
2017-10-29T22:11:07.930Z,89.3
2017-10-29T22:12:09.534Z,89.0
2017-10-29T22:13:11.211Z,89.4
2017-10-29T22:14:12.925Z,89.2
2017-10-29T22:15:14.623Z,89.1
2017-10-29T22:16:16.309Z,89.1
2017-10-29T22:17:17.742Z,89.1
2017-10-29T22:18:19.383Z,89.2
2017-10-29T22:19:21.019Z,89.8
2017-10-29T22:20:22.745Z,89.9
2017-10-29T22:21:24.248Z,89.6
2017-10-29T22:22:25.849Z,89.7
2017-10-29T22:23:27.532Z,89.9
2017-10-29T22:24:29.001Z,89.6
2017-10-29T22:25:30.750Z,89.6
2017-10-29T22:26:32.354Z,89.9
2017-10-29T22:27:34.126Z,89.3
2017-10-29T22:28:35.730Z,88.8
2017-10-29T22:29:37.186Z,89.2
2017-10-29T22:30:38.866Z,89.1
2017-10-29T22:31:40.559Z,89.0
2017-10-29T22:32:42.289Z,89.2
2017-10-29T22:33:44.049Z,89.4
2017-10-29T22:34:45.745Z,89.3
2017-10-29T22:35:47.477Z,89.2
2017-10-29T22:36:49.153Z,89.2
2017-10-29T22:37:50.650Z,89.2
2017-10-29T22:38:52.430Z,88.9
2017-10-29T22:39:54.263Z,89.2
2017-10-29T22:40:55.979Z,89.3
2017-10-29T22:41:57.523Z,89.0
2017-10-29T22:42:59.258Z,89.1
2017-10-29T22:44:00.960Z,88.8
2017-10-29T22:45:02.515Z,89.2
2017-10-29T22:46:04.288Z,89.2
2017-10-29T22:47:05.989Z,89.3
2017-10-29T22:48:07.679Z,89.6
2017-10-29T22:49:09.130Z,89.6
2017-10-29T22:50:10.744Z,90.0
2017-10-29T22:51:12.174Z,89.8
2017-10-29T22:52:13.695Z,89.8
2017-10-29T22:53:15.418Z,90.6
2017-10-29T22:54:17.050Z,90.3
2017-10-29T22:55:18.528Z,90.2
2017-10-29T22:56:20.250Z,90.1
2017-10-29T22:57:22.000Z,89.9
2017-10-29T22:58:23.609Z,90.1
2017-10-29T22:59:25.060Z,90.1
2017-10-29T23:00:26.541Z,90.1
2017-10-29T23:01:28.256Z,90.3
2017-10-29T23:02:29.776Z,90.1
2017-10-29T23:03:31.227Z,90.3
2017-10-29T23:04:32.889Z,90.2
2017-10-29T23:05:34.301Z,90.8
2017-10-29T23:06:35.999Z,90.8
2017-10-29T23:07:37.618Z,90.5
2017-10-29T23:08:39.313Z,91.1
2017-10-29T23:09:41.022Z,91.1
2017-10-29T23:10:42.700Z,90.7
2017-10-29T23:11:44.421Z,90.7
2017-10-29T23:12:46.134Z,91.4
2017-10-29T23:13:47.832Z,90.9
2017-10-29T23:14:49.468Z,90.8
2017-10-29T23:15:51.241Z,91.3
2017-10-29T23:16:53.044Z,91.3
2017-10-29T23:17:54.716Z,91.5
2017-10-29T23:18:56.327Z,91.2
2017-10-29T23:19:58.495Z,91.1
2017-10-29T23:20:59.948Z,90.7
2017-10-29T23:22:01.509Z,91.3
2017-10-29T23:23:03.357Z,90.9
2017-10-29T23:24:04.822Z,91.5
2017-10-29T23:25:06.519Z,90.9
2017-10-29T23:26:08.219Z,91.6
2017-10-29T23:27:09.727Z,91.5
2017-10-29T23:28:11.398Z,90.9
2017-10-29T23:29:13.088Z,91.8
2017-10-29T23:30:14.643Z,91.8
2017-10-29T23:31:16.347Z,91.6
2017-10-29T23:32:18.201Z,91.2
2017-10-29T23:33:19.879Z,91.2
2017-10-29T23:34:21.577Z,91.4
2017-10-29T23:35:23.368Z,91.2
2017-10-29T23:36:24.920Z,91.4
2017-10-29T23:37:26.826Z,91.2
2017-10-29T23:38:28.468Z,91.6
2017-10-29T23:39:29.919Z,91.6
2017-10-29T23:40:31.602Z,91.2
2017-10-29T23:41:33.400Z,91.3
2017-10-29T23:42:35.009Z,90.7
2017-10-29T23:43:36.768Z,91.3
2017-10-29T23:44:38.392Z,91.4
2017-10-29T23:45:40.076Z,90.8
2017-10-29T23:46:41.781Z,91.2
2017-10-29T23:47:43.406Z,91.3
2017-10-29T23:48:45.023Z,90.8
2017-10-29T23:49:46.742Z,91.8
2017-10-29T23:50:48.336Z,91.6
2017-10-29T23:51:49.823Z,91.6
2017-10-29T23:52:51.605Z,91.8
2017-10-29T23:53:53.298Z,91.4
2017-10-29T23:54:54.937Z,91.4
2017-10-29T23:55:56.408Z,91.5
2017-10-29T23:56:58.517Z,91.6
2017-10-29T23:58:00.107Z,91.5
2017-10-29T23:59:01.782Z,91.5
